sensor_id;sensor_type;location;lat;lon;timestamp;temperature;humidity
9446;DHT22;4761;49.490;10.908;2023-09-08T00:01:34;24.80;52.20
9446;DHT22;4761;49.490;10.908;2023-09-08T00:03:59;24.70;52.20
9446;DHT22;4761;49.490;10.908;2023-09-08T00:06:25;24.70;52.20
9446;DHT22;4761;49.490;10.908;2023-09-08T00:08:50;24.70;52.80
9446;DHT22;4761;49.490;10.908;2023-09-08T00:11:17;24.70;52.20
9446;DHT22;4761;49.490;10.908;2023-09-08T00:13:43;24.70;52.20
9446;DHT22;4761;49.490;10.908;2023-09-08T00:16:08;24.80;52.20
9446;DHT22;4761;49.490;10.908;2023-09-08T00:18:35;24.70;52.10
9446;DHT22;4761;49.490;10.908;2023-09-08T00:21:01;24.70;52.00
9446;DHT22;4761;49.490;10.908;2023-09-08T00:23:26;24.70;51.90
9446;DHT22;4761;49.490;10.908;2023-09-08T00:25:53;24.70;51.80
9446;DHT22;4761;49.490;10.908;2023-09-08T00:28:19;24.70;51.80
9446;DHT22;4761;49.490;10.908;2023-09-08T00:30:44;24.70;51.70
9446;DHT22;4761;49.490;10.908;2023-09-08T00:33:10;24.70;51.70
9446;DHT22;4761;49.490;10.908;2023-09-08T00:35:38;24.70;51.70
9446;DHT22;4761;49.490;10.908;2023-09-08T00:38:03;24.70;51.70
9446;DHT22;4761;49.490;10.908;2023-09-08T00:40:29;24.70;51.70
9446;DHT22;4761;49.490;10.908;2023-09-08T00:42:54;24.70;51.70
9446;DHT22;4761;49.490;10.908;2023-09-08T00:45:20;24.70;51.70
9446;DHT22;4761;49.490;10.908;2023-09-08T00:47:46;24.70;51.80
9446;DHT22;4761;49.490;10.908;2023-09-08T00:50:11;24.70;51.80
9446;DHT22;4761;49.490;10.908;2023-09-08T00:52:37;24.70;51.90
9446;DHT22;4761;49.490;10.908;2023-09-08T00:55:03;24.70;51.90
9446;DHT22;4761;49.490;10.908;2023-09-08T00:57:29;24.70;51.90
9446;DHT22;4761;49.490;10.908;2023-09-08T00:59:54;24.70;51.90
9446;DHT22;4761;49.490;10.908;2023-09-08T01:02:21;24.70;51.80
9446;DHT22;4761;49.490;10.908;2023-09-08T01:04:47;24.70;51.70
9446;DHT22;4761;49.490;10.908;2023-09-08T01:07:13;24.70;51.70
9446;DHT22;4761;49.490;10.908;2023-09-08T01:09:40;24.70;51.50
9446;DHT22;4761;49.490;10.908;2023-09-08T01:12:07;24.70;51.40
9446;DHT22;4761;49.490;10.908;2023-09-08T01:14:33;24.70;51.30
9446;DHT22;4761;49.490;10.908;2023-09-08T01:16:58;24.70;51.20
9446;DHT22;4761;49.490;10.908;2023-09-08T01:19:24;24.70;51.10
9446;DHT22;4761;49.490;10.908;2023-09-08T01:22:11;24.70;51.10
9446;DHT22;4761;49.490;10.908;2023-09-08T01:25:09;24.70;51.00
9446;DHT22;4761;49.490;10.908;2023-09-08T01:27:40;24.70;51.00
9446;DHT22;4761;49.490;10.908;2023-09-08T01:30:07;24.60;50.90
9446;DHT22;4761;49.490;10.908;2023-09-08T01:32:34;24.60;50.90
9446;DHT22;4761;49.490;10.908;2023-09-08T01:35:00;24.60;50.90
9446;DHT22;4761;49.490;10.908;2023-09-08T01:37:26;24.60;50.80
9446;DHT22;4761;49.490;10.908;2023-09-08T01:39:51;24.70;50.90
9446;DHT22;4761;49.490;10.908;2023-09-08T01:42:17;24.70;50.80
9446;DHT22;4761;49.490;10.908;2023-09-08T01:44:42;24.60;50.70
9446;DHT22;4761;49.490;10.908;2023-09-08T01:47:08;24.60;50.60
9446;DHT22;4761;49.490;10.908;2023-09-08T01:49:33;24.60;51.20
9446;DHT22;4761;49.490;10.908;2023-09-08T01:51:59;24.60;50.50
9446;DHT22;4761;49.490;10.908;2023-09-08T01:54:24;24.60;50.40
9446;DHT22;4761;49.490;10.908;2023-09-08T01:56:50;24.60;50.90
9446;DHT22;4761;49.490;10.908;2023-09-08T01:59:16;24.60;50.20
9446;DHT22;4761;49.490;10.908;2023-09-08T02:01:42;24.60;50.00
9446;DHT22;4761;49.490;10.908;2023-09-08T02:04:07;24.60;49.90
9446;DHT22;4761;49.490;10.908;2023-09-08T02:06:33;24.60;49.80
9446;DHT22;4761;49.490;10.908;2023-09-08T02:08:59;24.70;49.80
9446;DHT22;4761;49.490;10.908;2023-09-08T02:11:24;24.60;49.60
9446;DHT22;4761;49.490;10.908;2023-09-08T02:13:50;24.60;49.60
9446;DHT22;4761;49.490;10.908;2023-09-08T02:16:16;24.60;49.50
9446;DHT22;4761;49.490;10.908;2023-09-08T02:18:42;24.60;49.50
9446;DHT22;4761;49.490;10.908;2023-09-08T02:21:08;24.60;49.50
9446;DHT22;4761;49.490;10.908;2023-09-08T02:23:33;24.60;49.50
9446;DHT22;4761;49.490;10.908;2023-09-08T02:25:59;24.60;49.50
9446;DHT22;4761;49.490;10.908;2023-09-08T02:28:24;24.60;49.50
9446;DHT22;4761;49.490;10.908;2023-09-08T02:30:50;24.60;49.50
9446;DHT22;4761;49.490;10.908;2023-09-08T02:33:15;24.60;49.60
9446;DHT22;4761;49.490;10.908;2023-09-08T02:35:41;24.60;49.50
9446;DHT22;4761;49.490;10.908;2023-09-08T02:38:06;24.60;49.50
9446;DHT22;4761;49.490;10.908;2023-09-08T02:40:33;24.60;49.50
9446;DHT22;4761;49.490;10.908;2023-09-08T02:43:00;24.60;49.50
9446;DHT22;4761;49.490;10.908;2023-09-08T02:45:26;24.60;49.40
9446;DHT22;4761;49.490;10.908;2023-09-08T02:47:51;24.60;49.40
9446;DHT22;4761;49.490;10.908;2023-09-08T02:50:17;24.60;49.30
9446;DHT22;4761;49.490;10.908;2023-09-08T02:52:43;24.60;49.20
9446;DHT22;4761;49.490;10.908;2023-09-08T02:55:09;24.60;49.10
9446;DHT22;4761;49.490;10.908;2023-09-08T02:57:34;24.60;49.10
9446;DHT22;4761;49.490;10.908;2023-09-08T03:00:00;24.60;49.00
9446;DHT22;4761;49.490;10.908;2023-09-08T03:02:26;24.60;48.90
9446;DHT22;4761;49.490;10.908;2023-09-08T03:04:51;24.60;48.90
9446;DHT22;4761;49.490;10.908;2023-09-08T03:07:17;24.60;48.90
9446;DHT22;4761;49.490;10.908;2023-09-08T03:09:43;24.60;48.90
9446;DHT22;4761;49.490;10.908;2023-09-08T03:12:08;24.60;48.90
9446;DHT22;4761;49.490;10.908;2023-09-08T03:14:34;24.60;49.00
9446;DHT22;4761;49.490;10.908;2023-09-08T03:16:59;24.60;49.10
9446;DHT22;4761;49.490;10.908;2023-09-08T03:19:25;24.60;49.10
9446;DHT22;4761;49.490;10.908;2023-09-08T03:21:51;24.60;49.20
9446;DHT22;4761;49.490;10.908;2023-09-08T03:24:17;24.60;49.20
9446;DHT22;4761;49.490;10.908;2023-09-08T03:26:42;24.60;49.20
9446;DHT22;4761;49.490;10.908;2023-09-08T03:29:08;24.60;49.10
9446;DHT22;4761;49.490;10.908;2023-09-08T03:31:33;24.60;49.10
9446;DHT22;4761;49.490;10.908;2023-09-08T03:33:59;24.60;49.00
9446;DHT22;4761;49.490;10.908;2023-09-08T03:36:24;24.60;48.90
9446;DHT22;4761;49.490;10.908;2023-09-08T03:38:50;24.60;48.80
9446;DHT22;4761;49.490;10.908;2023-09-08T03:41:15;24.60;48.60
9446;DHT22;4761;49.490;10.908;2023-09-08T03:43:41;24.60;48.50
9446;DHT22;4761;49.490;10.908;2023-09-08T03:46:06;24.60;48.50
9446;DHT22;4761;49.490;10.908;2023-09-08T03:48:32;24.60;48.40
9446;DHT22;4761;49.490;10.908;2023-09-08T03:50:58;24.60;48.30
9446;DHT22;4761;49.490;10.908;2023-09-08T03:53:23;24.60;48.20
9446;DHT22;4761;49.490;10.908;2023-09-08T03:55:50;24.60;48.20
9446;DHT22;4761;49.490;10.908;2023-09-08T03:58:15;24.60;48.20
9446;DHT22;4761;49.490;10.908;2023-09-08T04:00:41;24.60;48.20
9446;DHT22;4761;49.490;10.908;2023-09-08T04:03:07;24.60;48.20
9446;DHT22;4761;49.490;10.908;2023-09-08T04:05:33;24.60;48.20
9446;DHT22;4761;49.490;10.908;2023-09-08T04:07:58;24.60;48.20
9446;DHT22;4761;49.490;10.908;2023-09-08T04:10:24;24.50;48.00
9446;DHT22;4761;49.490;10.908;2023-09-08T04:12:50;24.60;48.00
9446;DHT22;4761;49.490;10.908;2023-09-08T04:15:16;24.50;47.80
9446;DHT22;4761;49.490;10.908;2023-09-08T04:17:41;24.50;47.70
9446;DHT22;4761;49.490;10.908;2023-09-08T04:20:07;24.60;47.70
9446;DHT22;4761;49.490;10.908;2023-09-08T04:22:34;24.50;47.60
9446;DHT22;4761;49.490;10.908;2023-09-08T04:25:00;24.50;47.40
9446;DHT22;4761;49.490;10.908;2023-09-08T04:27:25;24.60;47.40
9446;DHT22;4761;49.490;10.908;2023-09-08T04:29:51;24.60;47.30
9446;DHT22;4761;49.490;10.908;2023-09-08T04:32:16;24.50;47.10
9446;DHT22;4761;49.490;10.908;2023-09-08T04:34:43;24.50;47.10
9446;DHT22;4761;49.490;10.908;2023-09-08T04:37:09;24.50;47.10
9446;DHT22;4761;49.490;10.908;2023-09-08T04:39:35;24.50;47.20
9446;DHT22;4761;49.490;10.908;2023-09-08T04:42:02;24.50;47.20
9446;DHT22;4761;49.490;10.908;2023-09-08T04:44:28;24.50;47.20
9446;DHT22;4761;49.490;10.908;2023-09-08T04:46:54;24.50;47.40
9446;DHT22;4761;49.490;10.908;2023-09-08T04:49:20;24.50;47.40
9446;DHT22;4761;49.490;10.908;2023-09-08T04:51:46;24.50;47.40
9446;DHT22;4761;49.490;10.908;2023-09-08T04:54:11;24.50;47.50
9446;DHT22;4761;49.490;10.908;2023-09-08T04:56:38;24.50;47.50
9446;DHT22;4761;49.490;10.908;2023-09-08T04:59:04;24.50;47.60
9446;DHT22;4761;49.490;10.908;2023-09-08T05:01:30;24.50;47.60
9446;DHT22;4761;49.490;10.908;2023-09-08T05:03:58;24.50;47.50
9446;DHT22;4761;49.490;10.908;2023-09-08T05:06:24;24.50;47.50
9446;DHT22;4761;49.490;10.908;2023-09-08T05:08:50;24.50;47.40
9446;DHT22;4761;49.490;10.908;2023-09-08T05:11:16;24.50;47.30
9446;DHT22;4761;49.490;10.908;2023-09-08T05:13:42;24.50;47.20
9446;DHT22;4761;49.490;10.908;2023-09-08T05:16:08;24.50;47.10
9446;DHT22;4761;49.490;10.908;2023-09-08T05:18:40;24.50;47.10
9446;DHT22;4761;49.490;10.908;2023-09-08T05:21:06;24.50;47.10
9446;DHT22;4761;49.490;10.908;2023-09-08T05:23:32;24.50;47.20
9446;DHT22;4761;49.490;10.908;2023-09-08T05:25:58;24.50;47.30
9446;DHT22;4761;49.490;10.908;2023-09-08T05:28:24;24.50;47.30
9446;DHT22;4761;49.490;10.908;2023-09-08T05:30:55;24.50;47.40
9446;DHT22;4761;49.490;10.908;2023-09-08T05:33:21;24.50;47.50
9446;DHT22;4761;49.490;10.908;2023-09-08T05:35:46;24.50;47.60
9446;DHT22;4761;49.490;10.908;2023-09-08T05:38:12;24.50;47.50
9446;DHT22;4761;49.490;10.908;2023-09-08T05:40:38;24.60;47.60
9446;DHT22;4761;49.490;10.908;2023-09-08T05:43:04;24.60;47.60
9446;DHT22;4761;49.490;10.908;2023-09-08T05:45:31;24.60;47.50
9446;DHT22;4761;49.490;10.908;2023-09-08T05:47:57;24.60;47.40
9446;DHT22;4761;49.490;10.908;2023-09-08T05:50:23;24.60;47.40
9446;DHT22;4761;49.490;10.908;2023-09-08T05:52:48;24.60;47.40
9446;DHT22;4761;49.490;10.908;2023-09-08T05:55:14;24.60;47.30
9446;DHT22;4761;49.490;10.908;2023-09-08T05:57:39;24.60;47.40
9446;DHT22;4761;49.490;10.908;2023-09-08T06:00:06;24.60;47.30
9446;DHT22;4761;49.490;10.908;2023-09-08T06:02:32;24.60;47.30
9446;DHT22;4761;49.490;10.908;2023-09-08T06:04:57;24.60;47.40
9446;DHT22;4761;49.490;10.908;2023-09-08T06:07:23;24.60;47.40
9446;DHT22;4761;49.490;10.908;2023-09-08T06:09:48;24.60;47.50
9446;DHT22;4761;49.490;10.908;2023-09-08T06:12:14;24.60;47.60
9446;DHT22;4761;49.490;10.908;2023-09-08T06:14:39;24.60;47.70
9446;DHT22;4761;49.490;10.908;2023-09-08T06:17:05;24.60;47.70
9446;DHT22;4761;49.490;10.908;2023-09-08T06:19:30;24.60;47.70
9446;DHT22;4761;49.490;10.908;2023-09-08T06:21:56;24.60;47.80
9446;DHT22;4761;49.490;10.908;2023-09-08T06:24:22;24.60;48.00
9446;DHT22;4761;49.490;10.908;2023-09-08T06:26:47;24.60;48.20
9446;DHT22;4761;49.490;10.908;2023-09-08T06:29:14;24.60;48.30
9446;DHT22;4761;49.490;10.908;2023-09-08T06:31:40;24.60;49.10
9446;DHT22;4761;49.490;10.908;2023-09-08T06:34:05;24.60;48.60
9446;DHT22;4761;49.490;10.908;2023-09-08T06:36:31;24.70;48.90
9446;DHT22;4761;49.490;10.908;2023-09-08T06:38:57;24.60;49.00
9446;DHT22;4761;49.490;10.908;2023-09-08T06:41:22;24.60;49.10
9446;DHT22;4761;49.490;10.908;2023-09-08T06:43:49;24.80;54.10
9446;DHT22;4761;49.490;10.908;2023-09-08T06:46:14;24.80;54.40
9446;DHT22;4761;49.490;10.908;2023-09-08T06:48:40;24.60;54.50
9446;DHT22;4761;49.490;10.908;2023-09-08T06:51:05;24.60;55.00
9446;DHT22;4761;49.490;10.908;2023-09-08T06:53:31;24.40;55.30
9446;DHT22;4761;49.490;10.908;2023-09-08T06:55:57;24.30;55.50
9446;DHT22;4761;49.490;10.908;2023-09-08T06:58:23;24.20;55.80
9446;DHT22;4761;49.490;10.908;2023-09-08T07:00:50;24.10;56.00
9446;DHT22;4761;49.490;10.908;2023-09-08T07:03:20;24.10;56.30
9446;DHT22;4761;49.490;10.908;2023-09-08T07:05:46;24.10;56.50
9446;DHT22;4761;49.490;10.908;2023-09-08T07:08:12;24.10;56.70
9446;DHT22;4761;49.490;10.908;2023-09-08T07:10:37;24.00;56.70
9446;DHT22;4761;49.490;10.908;2023-09-08T07:13:03;24.00;56.80
9446;DHT22;4761;49.490;10.908;2023-09-08T07:15:29;24.00;56.90
9446;DHT22;4761;49.490;10.908;2023-09-08T07:17:54;24.00;56.90
9446;DHT22;4761;49.490;10.908;2023-09-08T07:20:20;24.00;56.90
9446;DHT22;4761;49.490;10.908;2023-09-08T07:22:46;24.00;57.00
9446;DHT22;4761;49.490;10.908;2023-09-08T07:25:12;23.90;57.00
9446;DHT22;4761;49.490;10.908;2023-09-08T07:27:38;24.00;57.10
9446;DHT22;4761;49.490;10.908;2023-09-08T07:30:04;23.90;57.00
9446;DHT22;4761;49.490;10.908;2023-09-08T07:32:29;23.90;57.00
9446;DHT22;4761;49.490;10.908;2023-09-08T07:34:55;23.90;57.00
9446;DHT22;4761;49.490;10.908;2023-09-08T07:37:24;23.90;57.00
9446;DHT22;4761;49.490;10.908;2023-09-08T07:39:52;23.90;56.90
9446;DHT22;4761;49.490;10.908;2023-09-08T07:42:18;23.90;56.90
9446;DHT22;4761;49.490;10.908;2023-09-08T07:44:45;24.00;57.00
9446;DHT22;4761;49.490;10.908;2023-09-08T07:47:10;24.00;57.00
9446;DHT22;4761;49.490;10.908;2023-09-08T07:49:36;24.00;56.90
9446;DHT22;4761;49.490;10.908;2023-09-08T07:52:02;24.00;56.80
9446;DHT22;4761;49.490;10.908;2023-09-08T07:54:29;24.10;56.90
9446;DHT22;4761;49.490;10.908;2023-09-08T07:56:55;24.00;56.70
9446;DHT22;4761;49.490;10.908;2023-09-08T07:59:20;24.10;56.80
9446;DHT22;4761;49.490;10.908;2023-09-08T08:01:46;24.10;56.80
9446;DHT22;4761;49.490;10.908;2023-09-08T08:04:11;24.10;56.70
9446;DHT22;4761;49.490;10.908;2023-09-08T08:06:38;24.10;56.80
9446;DHT22;4761;49.490;10.908;2023-09-08T08:09:03;24.10;56.70
9446;DHT22;4761;49.490;10.908;2023-09-08T08:11:29;24.10;56.70
9446;DHT22;4761;49.490;10.908;2023-09-08T08:13:54;24.10;56.70
9446;DHT22;4761;49.490;10.908;2023-09-08T08:16:22;24.10;56.70
9446;DHT22;4761;49.490;10.908;2023-09-08T08:18:48;24.10;56.60
9446;DHT22;4761;49.490;10.908;2023-09-08T08:21:13;24.10;56.70
9446;DHT22;4761;49.490;10.908;2023-09-08T08:23:39;24.10;56.80
9446;DHT22;4761;49.490;10.908;2023-09-08T08:26:04;24.10;56.80
9446;DHT22;4761;49.490;10.908;2023-09-08T08:28:30;24.20;56.80
9446;DHT22;4761;49.490;10.908;2023-09-08T08:30:56;24.20;56.80
9446;DHT22;4761;49.490;10.908;2023-09-08T08:33:22;24.20;56.80
9446;DHT22;4761;49.490;10.908;2023-09-08T08:35:51;24.20;56.60
9446;DHT22;4761;49.490;10.908;2023-09-08T08:38:17;24.20;56.70
9446;DHT22;4761;49.490;10.908;2023-09-08T08:40:42;24.30;56.80
9446;DHT22;4761;49.490;10.908;2023-09-08T08:43:08;24.30;56.80
9446;DHT22;4761;49.490;10.908;2023-09-08T08:45:34;24.20;56.70
9446;DHT22;4761;49.490;10.908;2023-09-08T08:48:02;24.30;56.80
9446;DHT22;4761;49.490;10.908;2023-09-08T08:50:29;24.30;56.80
9446;DHT22;4761;49.490;10.908;2023-09-08T08:52:56;24.30;56.90
9446;DHT22;4761;49.490;10.908;2023-09-08T08:55:26;24.30;56.80
9446;DHT22;4761;49.490;10.908;2023-09-08T08:57:52;24.30;56.80
9446;DHT22;4761;49.490;10.908;2023-09-08T09:00:18;24.30;56.80
9446;DHT22;4761;49.490;10.908;2023-09-08T09:02:44;24.40;56.90
9446;DHT22;4761;49.490;10.908;2023-09-08T09:05:12;24.40;56.70
9446;DHT22;4761;49.490;10.908;2023-09-08T09:07:39;24.40;56.50
9446;DHT22;4761;49.490;10.908;2023-09-08T09:10:05;24.40;56.60
9446;DHT22;4761;49.490;10.908;2023-09-08T09:12:31;24.40;56.70
9446;DHT22;4761;49.490;10.908;2023-09-08T09:14:58;24.40;56.60
9446;DHT22;4761;49.490;10.908;2023-09-08T09:17:25;24.40;56.50
9446;DHT22;4761;49.490;10.908;2023-09-08T09:19:51;24.40;56.60
9446;DHT22;4761;49.490;10.908;2023-09-08T09:22:20;24.40;56.60
9446;DHT22;4761;49.490;10.908;2023-09-08T09:24:47;24.40;56.60
9446;DHT22;4761;49.490;10.908;2023-09-08T09:27:13;24.40;56.80
9446;DHT22;4761;49.490;10.908;2023-09-08T09:29:51;24.40;56.80
9446;DHT22;4761;49.490;10.908;2023-09-08T09:32:23;24.40;56.80
9446;DHT22;4761;49.490;10.908;2023-09-08T09:34:50;24.40;56.70
9446;DHT22;4761;49.490;10.908;2023-09-08T09:37:18;24.40;56.80
9446;DHT22;4761;49.490;10.908;2023-09-08T09:39:48;24.50;56.80
9446;DHT22;4761;49.490;10.908;2023-09-08T09:42:15;24.40;56.80
9446;DHT22;4761;49.490;10.908;2023-09-08T09:44:40;24.40;57.00
9446;DHT22;4761;49.490;10.908;2023-09-08T09:47:06;24.50;57.10
9446;DHT22;4761;49.490;10.908;2023-09-08T09:49:42;24.50;56.80
9446;DHT22;4761;49.490;10.908;2023-09-08T09:52:07;24.50;56.90
9446;DHT22;4761;49.490;10.908;2023-09-08T09:54:33;24.50;56.80
9446;DHT22;4761;49.490;10.908;2023-09-08T09:56:59;24.50;57.00
9446;DHT22;4761;49.490;10.908;2023-09-08T09:59:25;24.50;56.90
9446;DHT22;4761;49.490;10.908;2023-09-08T10:01:52;24.50;56.90
9446;DHT22;4761;49.490;10.908;2023-09-08T10:04:18;24.50;56.80
9446;DHT22;4761;49.490;10.908;2023-09-08T10:06:45;24.50;56.90
9446;DHT22;4761;49.490;10.908;2023-09-08T10:09:11;24.50;56.80
9446;DHT22;4761;49.490;10.908;2023-09-08T10:11:42;24.50;56.90
9446;DHT22;4761;49.490;10.908;2023-09-08T10:14:08;24.50;56.90
9446;DHT22;4761;49.490;10.908;2023-09-08T10:16:39;24.60;57.00
9446;DHT22;4761;49.490;10.908;2023-09-08T10:19:08;24.60;57.00
9446;DHT22;4761;49.490;10.908;2023-09-08T10:21:47;24.60;57.00
9446;DHT22;4761;49.490;10.908;2023-09-08T10:24:33;24.60;57.10
9446;DHT22;4761;49.490;10.908;2023-09-08T10:27:08;24.60;56.80
9446;DHT22;4761;49.490;10.908;2023-09-08T10:29:34;24.60;56.90
9446;DHT22;4761;49.490;10.908;2023-09-08T10:32:01;24.60;57.00
9446;DHT22;4761;49.490;10.908;2023-09-08T10:34:28;24.60;57.10
9446;DHT22;4761;49.490;10.908;2023-09-08T10:36:54;24.60;57.10
9446;DHT22;4761;49.490;10.908;2023-09-08T10:39:36;24.60;57.00
9446;DHT22;4761;49.490;10.908;2023-09-08T10:47:18;24.60;56.80
9446;DHT22;4761;49.490;10.908;2023-09-08T10:49:43;24.60;56.70
9446;DHT22;4761;49.490;10.908;2023-09-08T10:52:10;24.60;56.70
9446;DHT22;4761;49.490;10.908;2023-09-08T10:54:50;24.60;56.80
9446;DHT22;4761;49.490;10.908;2023-09-08T10:57:17;24.60;56.70
9446;DHT22;4761;49.490;10.908;2023-09-08T11:00:00;24.60;56.70
9446;DHT22;4761;49.490;10.908;2023-09-08T11:02:33;24.70;56.80
9446;DHT22;4761;49.490;10.908;2023-09-08T11:04:58;24.60;56.80
9446;DHT22;4761;49.490;10.908;2023-09-08T11:07:25;24.60;56.70
9446;DHT22;4761;49.490;10.908;2023-09-08T11:09:50;24.70;56.90
9446;DHT22;4761;49.490;10.908;2023-09-08T11:12:16;24.60;56.80
9446;DHT22;4761;49.490;10.908;2023-09-08T11:14:43;24.60;56.80
9446;DHT22;4761;49.490;10.908;2023-09-08T11:17:09;24.70;56.80
9446;DHT22;4761;49.490;10.908;2023-09-08T11:19:48;24.70;56.90
9446;DHT22;4761;49.490;10.908;2023-09-08T11:22:15;24.70;56.90
9446;DHT22;4761;49.490;10.908;2023-09-08T11:24:44;24.70;56.80
9446;DHT22;4761;49.490;10.908;2023-09-08T11:27:13;24.70;56.80
9446;DHT22;4761;49.490;10.908;2023-09-08T11:29:39;24.70;56.90
9446;DHT22;4761;49.490;10.908;2023-09-08T11:32:08;24.70;56.90
9446;DHT22;4761;49.490;10.908;2023-09-08T11:34:37;24.80;57.00
9446;DHT22;4761;49.490;10.908;2023-09-08T11:37:08;24.80;57.00
9446;DHT22;4761;49.490;10.908;2023-09-08T11:39:38;24.80;56.80
9446;DHT22;4761;49.490;10.908;2023-09-08T11:42:04;24.80;56.90
9446;DHT22;4761;49.490;10.908;2023-09-08T11:44:30;24.80;56.80
9446;DHT22;4761;49.490;10.908;2023-09-08T11:46:55;24.80;56.70
9446;DHT22;4761;49.490;10.908;2023-09-08T11:49:22;24.90;56.80
9446;DHT22;4761;49.490;10.908;2023-09-08T11:51:49;24.90;56.70
9446;DHT22;4761;49.490;10.908;2023-09-08T11:54:15;24.90;56.60
9446;DHT22;4761;49.490;10.908;2023-09-08T11:56:41;24.90;56.70
9446;DHT22;4761;49.490;10.908;2023-09-08T11:59:07;24.90;56.70
9446;DHT22;4761;49.490;10.908;2023-09-08T12:01:33;24.90;56.70
9446;DHT22;4761;49.490;10.908;2023-09-08T12:03:59;24.90;57.30
9446;DHT22;4761;49.490;10.908;2023-09-08T12:06:25;24.90;56.70
9446;DHT22;4761;49.490;10.908;2023-09-08T12:08:51;25.00;56.70
9446;DHT22;4761;49.490;10.908;2023-09-08T12:11:17;25.00;56.70
9446;DHT22;4761;49.490;10.908;2023-09-08T12:13:42;24.90;56.60
9446;DHT22;4761;49.490;10.908;2023-09-08T12:16:20;25.00;56.70
9446;DHT22;4761;49.490;10.908;2023-09-08T12:18:50;25.00;56.50
9446;DHT22;4761;49.490;10.908;2023-09-08T12:21:16;25.00;56.50
9446;DHT22;4761;49.490;10.908;2023-09-08T12:23:49;25.00;56.50
9446;DHT22;4761;49.490;10.908;2023-09-08T12:26:15;25.00;56.50
9446;DHT22;4761;49.490;10.908;2023-09-08T12:28:45;25.00;56.50
9446;DHT22;4761;49.490;10.908;2023-09-08T12:31:13;25.00;56.60
9446;DHT22;4761;49.490;10.908;2023-09-08T12:33:39;25.00;56.60
9446;DHT22;4761;49.490;10.908;2023-09-08T12:36:18;25.00;56.60
9446;DHT22;4761;49.490;10.908;2023-09-08T12:38:49;25.00;56.60
9446;DHT22;4761;49.490;10.908;2023-09-08T12:41:15;25.00;56.70
9446;DHT22;4761;49.490;10.908;2023-09-08T12:43:40;25.00;56.70
9446;DHT22;4761;49.490;10.908;2023-09-08T12:46:06;25.00;56.80
9446;DHT22;4761;49.490;10.908;2023-09-08T12:48:31;25.10;56.80
9446;DHT22;4761;49.490;10.908;2023-09-08T12:50:57;25.00;56.80
9446;DHT22;4761;49.490;10.908;2023-09-08T12:53:23;25.00;56.80
9446;DHT22;4761;49.490;10.908;2023-09-08T12:55:49;25.00;56.90
9446;DHT22;4761;49.490;10.908;2023-09-08T12:58:15;25.00;56.80
9446;DHT22;4761;49.490;10.908;2023-09-08T13:00:43;25.00;56.90
9446;DHT22;4761;49.490;10.908;2023-09-08T13:03:09;25.10;56.90
9446;DHT22;4761;49.490;10.908;2023-09-08T13:05:35;25.10;57.00
9446;DHT22;4761;49.490;10.908;2023-09-08T13:08:00;25.10;57.00
9446;DHT22;4761;49.490;10.908;2023-09-08T13:10:26;25.10;57.40
9446;DHT22;4761;49.490;10.908;2023-09-08T13:12:52;25.00;57.10
9446;DHT22;4761;49.490;10.908;2023-09-08T13:15:17;25.10;57.00
9446;DHT22;4761;49.490;10.908;2023-09-08T13:17:43;25.10;57.10
9446;DHT22;4761;49.490;10.908;2023-09-08T13:20:09;25.10;57.10
9446;DHT22;4761;49.490;10.908;2023-09-08T13:22:34;25.10;57.10
9446;DHT22;4761;49.490;10.908;2023-09-08T13:25:00;25.10;57.10
9446;DHT22;4761;49.490;10.908;2023-09-08T13:27:25;25.10;57.10
9446;DHT22;4761;49.490;10.908;2023-09-08T13:29:53;25.10;57.10
9446;DHT22;4761;49.490;10.908;2023-09-08T13:32:19;25.10;57.10
9446;DHT22;4761;49.490;10.908;2023-09-08T13:34:45;25.10;57.20
9446;DHT22;4761;49.490;10.908;2023-09-08T13:37:12;25.10;57.20
9446;DHT22;4761;49.490;10.908;2023-09-08T13:39:38;25.10;57.30
9446;DHT22;4761;49.490;10.908;2023-09-08T13:42:04;25.10;57.30
9446;DHT22;4761;49.490;10.908;2023-09-08T13:44:29;25.10;57.30
9446;DHT22;4761;49.490;10.908;2023-09-08T13:46:55;25.10;57.30
9446;DHT22;4761;49.490;10.908;2023-09-08T13:49:21;25.10;57.40
9446;DHT22;4761;49.490;10.908;2023-09-08T13:51:47;25.10;57.40
9446;DHT22;4761;49.490;10.908;2023-09-08T13:54:14;25.10;57.40
9446;DHT22;4761;49.490;10.908;2023-09-08T13:56:41;25.10;57.40
9446;DHT22;4761;49.490;10.908;2023-09-08T13:59:07;25.10;57.40
9446;DHT22;4761;49.490;10.908;2023-09-08T14:01:34;25.10;57.40
9446;DHT22;4761;49.490;10.908;2023-09-08T14:03:59;25.10;57.50
9446;DHT22;4761;49.490;10.908;2023-09-08T14:06:27;25.10;57.50
9446;DHT22;4761;49.490;10.908;2023-09-08T14:08:52;25.10;57.50
9446;DHT22;4761;49.490;10.908;2023-09-08T14:11:18;25.10;57.60
9446;DHT22;4761;49.490;10.908;2023-09-08T14:13:44;25.10;57.60
9446;DHT22;4761;49.490;10.908;2023-09-08T14:16:12;25.10;57.70
9446;DHT22;4761;49.490;10.908;2023-09-08T14:18:38;25.10;57.70
9446;DHT22;4761;49.490;10.908;2023-09-08T14:21:04;25.10;57.70
9446;DHT22;4761;49.490;10.908;2023-09-08T14:23:30;25.10;57.70
9446;DHT22;4761;49.490;10.908;2023-09-08T14:25:56;25.10;57.70
9446;DHT22;4761;49.490;10.908;2023-09-08T14:28:22;25.10;57.80
9446;DHT22;4761;49.490;10.908;2023-09-08T14:30:49;25.10;57.70
9446;DHT22;4761;49.490;10.908;2023-09-08T14:33:15;25.10;57.80
9446;DHT22;4761;49.490;10.908;2023-09-08T14:35:44;25.10;57.80
9446;DHT22;4761;49.490;10.908;2023-09-08T14:38:12;25.10;57.80
9446;DHT22;4761;49.490;10.908;2023-09-08T14:40:38;25.10;57.90
9446;DHT22;4761;49.490;10.908;2023-09-08T14:43:03;25.10;57.80
9446;DHT22;4761;49.490;10.908;2023-09-08T14:45:29;25.10;57.70
9446;DHT22;4761;49.490;10.908;2023-09-08T14:47:54;25.10;57.70
9446;DHT22;4761;49.490;10.908;2023-09-08T14:50:20;25.10;57.60
9446;DHT22;4761;49.490;10.908;2023-09-08T14:52:45;25.10;57.70
9446;DHT22;4761;49.490;10.908;2023-09-08T14:55:11;25.10;57.70
9446;DHT22;4761;49.490;10.908;2023-09-08T14:57:37;25.10;57.80
9446;DHT22;4761;49.490;10.908;2023-09-08T15:00:03;25.10;57.80
9446;DHT22;4761;49.490;10.908;2023-09-08T15:02:30;25.10;57.80
9446;DHT22;4761;49.490;10.908;2023-09-08T15:04:56;25.10;57.90
9446;DHT22;4761;49.490;10.908;2023-09-08T15:07:22;25.10;57.90
9446;DHT22;4761;49.490;10.908;2023-09-08T15:09:47;25.10;58.00
9446;DHT22;4761;49.490;10.908;2023-09-08T15:12:13;25.10;58.00
9446;DHT22;4761;49.490;10.908;2023-09-08T15:14:38;25.10;58.00
9446;DHT22;4761;49.490;10.908;2023-09-08T15:17:05;25.10;58.10
9446;DHT22;4761;49.490;10.908;2023-09-08T15:19:31;25.10;58.10
9446;DHT22;4761;49.490;10.908;2023-09-08T15:21:58;25.10;58.10
9446;DHT22;4761;49.490;10.908;2023-09-08T15:24:23;25.10;58.20
9446;DHT22;4761;49.490;10.908;2023-09-08T15:26:49;25.10;58.20
9446;DHT22;4761;49.490;10.908;2023-09-08T15:29:15;25.10;58.20
9446;DHT22;4761;49.490;10.908;2023-09-08T15:31:41;25.00;58.20
9446;DHT22;4761;49.490;10.908;2023-09-08T15:34:07;25.10;58.20
9446;DHT22;4761;49.490;10.908;2023-09-08T15:36:33;25.10;58.30
9446;DHT22;4761;49.490;10.908;2023-09-08T15:38:58;25.10;58.30
9446;DHT22;4761;49.490;10.908;2023-09-08T15:41:24;25.00;58.30
9446;DHT22;4761;49.490;10.908;2023-09-08T15:43:50;25.00;58.30
9446;DHT22;4761;49.490;10.908;2023-09-08T15:46:16;25.00;58.30